Time;durP1;ratioP1;P1;durP2;ratioP2;P2;SDS_P1;SDS_P2;PMS_P1;PMS_P2;Temp;Humidity;BMP_temperature;BMP_pressure;BME280_temperature;BME280_humidity;BME280_pressure;Samples;Min_cycle;Max_cycle;Signal;HPM_P1;HPM_P2
2023/02/28 07:25:03;;;;;;;8.13;4.03;;;5.00;99.90;;;;;;6251706;22;20016;-93
2023/02/28 07:27:29;;;;;;;9.02;4.95;;;4.90;99.90;;;;;;6246114;22;20008;-92
2023/02/28 07:29:55;;;;;;;9.90;4.45;;;4.90;99.90;;;;;;6270747;22;20035;-92
2023/02/28 07:32:20;;;;;;;7.70;4.10;;;4.90;99.90;;;;;;6242551;23;20051;-93
2023/02/28 07:34:49;;;;;;;9.88;4.25;;;4.90;99.90;;;;;;6240667;23;20004;-95
2023/02/28 07:37:15;;;;;;;8.85;4.40;;;5.00;99.90;;;;;;6239791;23;20011;-90
2023/02/28 07:39:44;;;;;;;11.00;4.28;;;5.00;99.90;;;;;;6242035;23;20020;-93
2023/02/28 07:42:11;;;;;;;9.10;4.38;;;5.00;99.90;;;;;;6238836;23;20007;-94
2023/02/28 07:44:40;;;;;;;10.10;4.55;;;5.00;99.90;;;;;;6234539;23;20058;-94
2023/02/28 07:47:10;;;;;;;9.02;4.32;;;5.00;99.90;;;;;;6232120;23;20042;-94
2023/02/28 07:49:36;;;;;;;10.52;4.72;;;5.00;99.90;;;;;;6230108;23;20133;-94
2023/02/28 07:52:03;;;;;;;9.75;4.70;;;5.00;99.90;;;;;;6229047;23;20518;-94
2023/02/28 07:54:29;;;;;;;6.55;3.75;;;5.00;99.90;;;;;;6255726;23;19996;-95
2023/02/28 07:56:55;;;;;;;8.75;4.57;;;5.00;99.90;;;;;;6230558;23;20088;-93
2023/02/28 07:59:27;;;;;;;6.80;3.90;;;5.00;99.90;;;;;;6233075;23;20019;-92
2023/02/28 08:01:52;;;;;;;8.32;3.63;;;5.00;99.90;;;;;;6229833;23;20004;-93
2023/02/28 08:04:18;;;;;;;7.38;4.05;;;5.10;99.90;;;;;;6233339;23;20004;-92
2023/02/28 08:09:45;;;;;;;7.22;4.15;;;5.10;99.90;;;;;;6260215;23;20008;-94
2023/02/28 08:12:11;;;;;;;7.93;3.80;;;5.10;99.90;;;;;;6233839;23;20004;-94
2023/02/28 08:14:37;;;;;;;16.35;4.65;;;5.20;99.90;;;;;;6225366;23;20027;-95
2023/02/28 08:17:04;;;;;;;8.13;4.03;;;5.20;99.90;;;;;;6232536;23;20016;-93
2023/02/28 08:19:30;;;;;;;8.55;3.95;;;5.20;99.90;;;;;;6235599;23;20020;-95
2023/02/28 08:21:59;;;;;;;12.00;4.40;;;5.20;99.90;;;;;;6242131;23;20008;-94
2023/02/28 08:24:24;;;;;;;8.55;4.25;;;5.20;99.90;;;;;;6233318;23;20102;-93
2023/02/28 08:26:50;;;;;;;10.43;4.18;;;5.20;99.90;;;;;;6224107;23;20027;-94
2023/02/28 08:29:16;;;;;;;10.55;3.78;;;5.20;99.90;;;;;;6223647;23;20004;-94
2023/02/28 08:31:42;;;;;;;6.88;3.58;;;5.30;99.90;;;;;;6239829;23;19989;-94
2023/02/28 08:34:14;;;;;;;6.38;3.65;;;5.20;99.90;;;;;;6226967;23;20016;-93
2023/02/28 08:36:40;;;;;;;7.85;2.92;;;5.30;99.90;;;;;;6221092;23;20005;-92
2023/02/28 08:39:07;;;;;;;8.13;3.22;;;5.30;99.90;;;;;;6221013;23;20012;-93
2023/02/28 08:41:33;;;;;;;7.57;3.10;;;5.30;99.90;;;;;;6221527;23;20075;-93
2023/02/28 08:44:00;;;;;;;6.95;3.30;;;5.30;99.90;;;;;;6220799;23;20011;-91
2023/02/28 08:46:26;;;;;;;10.30;3.40;;;5.40;99.90;;;;;;6221638;23;20008;-91
2023/02/28 08:48:53;;;;;;;9.48;3.53;;;5.40;99.90;;;;;;6223617;23;20006;-91
2023/02/28 08:51:25;;;;;;;7.03;3.85;;;5.40;99.90;;;;;;6225650;23;20004;-90
2023/02/28 08:53:57;;;;;;;7.00;3.00;;;5.40;99.90;;;;;;6232642;23;20008;-93
2023/02/28 08:56:23;;;;;;;6.07;3.42;;;5.40;99.90;;;;;;6236249;23;20172;-94
2023/02/28 08:58:50;;;;;;;9.88;3.45;;;5.40;99.90;;;;;;6237104;23;20011;-94
2023/02/28 09:01:21;;;;;;;8.55;3.30;;;5.50;99.90;;;;;;6243765;22;20008;-92
2023/02/28 09:03:49;;;;;;;7.85;3.30;;;5.50;99.90;;;;;;6247288;22;19996;-91
2023/02/28 09:06:16;;;;;;;6.72;3.08;;;5.60;99.90;;;;;;6245788;23;20012;-93
2023/02/28 09:08:42;;;;;;;3.50;2.80;;;5.60;99.90;;;;;;6245268;23;20000;-94
2023/02/28 09:11:09;;;;;;;5.85;3.30;;;5.60;99.90;;;;;;6246693;22;20012;-92
2023/02/28 09:13:35;;;;;;;8.20;2.95;;;5.60;99.90;;;;;;6246073;22;20012;-90
2023/02/28 09:16:05;;;;;;;4.45;3.03;;;5.70;99.90;;;;;;6244604;23;20012;-94
2023/02/28 09:18:30;;;;;;;6.32;3.08;;;5.80;99.90;;;;;;6238709;23;20015;-92
2023/02/28 09:20:57;;;;;;;7.15;3.42;;;5.80;99.90;;;;;;6243320;23;19996;-93
2023/02/28 09:23:24;;;;;;;5.80;2.80;;;5.80;99.90;;;;;;6232632;23;20008;-96
2023/02/28 09:25:54;;;;;;;4.85;2.38;;;5.90;99.90;;;;;;6226893;23;20012;-95
2023/02/28 09:28:21;;;;;;;3.53;2.45;;;5.90;99.90;;;;;;6220927;23;20008;-95
2023/02/28 09:30:50;;;;;;;3.03;2.08;;;5.90;99.90;;;;;;6219383;23;20000;-93
2023/02/28 09:33:18;;;;;;;3.72;2.20;;;5.90;99.90;;;;;;6219984;23;20149;-94
2023/02/28 09:35:44;;;;;;;4.75;2.20;;;5.90;99.90;;;;;;6219457;23;20008;-94
2023/02/28 09:38:10;;;;;;;3.55;2.10;;;5.90;99.90;;;;;;6219510;23;20024;-93
2023/02/28 09:40:50;;;;;;;2.80;1.90;;;5.90;99.90;;;;;;6233503;22;20012;-90
2023/02/28 09:43:20;;;;;;;3.90;1.67;;;6.00;99.90;;;;;;6248102;22;20027;-88
2023/02/28 09:46:05;;;;;;;3.08;1.88;;;6.00;99.90;;;;;;6248002;22;20135;-88
2023/02/28 09:48:42;;;;;;;4.50;2.58;;;6.00;99.90;;;;;;6245066;22;20008;-89
2023/02/28 09:51:41;;;;;;;2.92;1.42;;;6.00;99.90;;;;;;6248138;23;20897;-88
2023/02/28 09:54:13;;;;;;;1.73;1.25;;;6.00;99.90;;;;;;6248045;22;20013;-89
2023/02/28 09:56:42;;;;;;;1.73;1.30;;;6.10;99.90;;;;;;6247483;22;20027;-90
2023/02/28 09:59:27;;;;;;;5.63;2.53;;;6.00;99.90;;;;;;6247679;22;19990;-88
2023/02/28 10:02:28;;;;;;;2.35;1.58;;;6.00;99.90;;;;;;6248004;22;20019;-88
2023/02/28 10:04:58;;;;;;;5.43;2.00;;;6.00;99.90;;;;;;6247877;22;20055;-89
2023/02/28 10:07:48;;;;;;;3.20;1.58;;;6.10;99.90;;;;;;6247854;22;20065;-88
2023/02/28 10:10:35;;;;;;;3.55;1.67;;;6.10;99.90;;;;;;6247990;22;20019;-89
2023/02/28 10:13:06;;;;;;;8.40;1.63;;;6.10;99.90;;;;;;6247895;22;20016;-88
2023/02/28 10:15:34;;;;;;;5.85;1.63;;;6.20;99.90;;;;;;6247913;22;20044;-89
2023/02/28 10:18:09;;;;;;;6.63;2.03;;;6.20;99.90;;;;;;6248099;22;20081;-90
2023/02/28 10:20:39;;;;;;;2.20;1.52;;;6.30;99.90;;;;;;6247603;22;20035;-93
2023/02/28 10:23:15;;;;;;;4.53;1.60;;;6.30;99.90;;;;;;6246233;22;20047;-89
2023/02/28 10:25:47;;;;;;;5.15;2.00;;;6.40;99.90;;;;;;6247437;22;20018;-88
2023/02/28 10:28:17;;;;;;;6.72;2.13;;;6.50;99.90;;;;;;6247147;22;20011;-90
2023/02/28 10:30:53;;;;;;;4.60;1.80;;;6.60;99.90;;;;;;6247727;22;19988;-90
2023/02/28 10:33:21;;;;;;;3.40;1.98;;;6.70;99.90;;;;;;6247519;22;19992;-88
2023/02/28 10:35:48;;;;;;;4.72;1.88;;;6.80;99.90;;;;;;6247660;22;20004;-89
2023/02/28 10:38:22;;;;;;;3.47;1.52;;;7.10;99.90;;;;;;6247753;22;19996;-86
2023/02/28 10:40:49;;;;;;;3.58;1.83;;;7.40;99.90;;;;;;6246997;22;19992;-88
2023/02/28 10:43:19;;;;;;;6.10;3.40;;;7.90;99.90;;;;;;6247172;22;20015;-89
2023/02/28 10:46:12;;;;;;;2.42;1.58;;;8.20;99.90;;;;;;6246591;23;20020;-87
2023/02/28 10:48:42;;;;;;;3.55;1.67;;;8.40;99.90;;;;;;6246574;22;20008;-85
2023/02/28 10:51:17;;;;;;;5.90;1.95;;;8.40;99.90;;;;;;6244857;23;19995;-95
2023/02/28 10:53:43;;;;;;;2.20;1.70;;;8.30;99.90;;;;;;6247135;23;20022;-86
2023/02/28 10:56:09;;;;;;;4.57;1.52;;;8.20;99.90;;;;;;6239364;23;20067;-93
2023/02/28 10:59:02;;;;;;;2.63;1.15;;;8.10;99.90;;;;;;6238642;23;20012;-94
2023/02/28 11:01:52;;;;;;;3.40;1.38;;;8.00;99.90;;;;;;6236516;23;20011;-91
2023/02/28 11:04:39;;;;;;;1.67;1.40;;;7.80;99.90;;;;;;6246265;23;20124;-94
2023/02/28 11:07:19;;;;;;;3.05;1.33;;;7.70;99.90;;;;;;6243905;22;20060;-90
2023/02/28 11:09:52;;;;;;;2.47;1.50;;;7.60;99.90;;;;;;6246847;23;20031;-93
2023/02/28 11:12:28;;;;;;;3.50;1.70;;;7.60;99.90;;;;;;6242162;23;20023;-92
2023/02/28 11:17:36;;;;;;;1.50;1.40;;;7.90;99.90;;;;;;6214237;22;20036;-88
2023/02/28 11:20:13;;;;;;;2.63;1.58;;;8.30;99.90;;;;;;6245441;22;19989;-87
2023/02/28 11:22:45;;;;;;;3.95;1.45;;;8.50;99.90;;;;;;6219451;22;20005;-88
2023/02/28 11:25:22;;;;;;;3.17;1.40;;;8.50;99.90;;;;;;6238425;23;20247;-87
2023/02/28 11:27:53;;;;;;;2.30;0.90;;;8.40;99.90;;;;;;6249684;22;20004;-88
2023/02/28 11:30:39;;;;;;;;;;;8.20;99.90;;;;;;6250238;22;19989;-89
2023/02/28 11:33:31;;;;;;;1.98;1.05;;;8.00;99.90;;;;;;6275296;22;19891;-92
2023/02/28 11:36:24;;;;;;;8.70;1.42;;;7.80;99.90;;;;;;6235720;23;20527;-93
2023/02/28 11:38:50;;;;;;;6.18;1.13;;;7.70;99.90;;;;;;6223816;23;20004;-92
2023/02/28 11:41:30;;;;;;;1.45;1.10;;;7.70;99.90;;;;;;6246905;22;20058;-87
2023/02/28 11:44:35;;;;;;;2.60;0.98;;;7.70;99.90;;;;;;6250216;22;20004;-89
2023/02/28 11:47:21;;;;;;;2.30;1.23;;;7.80;99.90;;;;;;6124604;23;19998;-89
2023/02/28 11:50:13;;;;;;;2.97;1.33;;;7.90;99.90;;;;;;6100334;23;20011;-89
2023/02/28 11:52:50;;;;;;;3.75;0.77;;;8.00;99.90;;;;;;6096516;23;20522;-94
2023/02/28 11:55:28;;;;;;;1.70;0.93;;;8.10;99.90;;;;;;6121988;23;20014;-90
2023/02/28 12:03:06;;;;;;;2.20;1.10;;;8.30;99.90;;;;;;6240460;22;20023;-91
2023/02/28 12:05:45;;;;;;;2.40;1.30;;;8.30;99.90;;;;;;6243526;22;19988;-95
2023/02/28 12:08:46;;;;;;;2.30;1.15;;;8.30;99.90;;;;;;6218742;22;20008;-88
2023/02/28 12:11:31;;;;;;;1.75;1.13;;;8.30;99.90;;;;;;6218921;22;20027;-89
2023/02/28 12:14:09;;;;;;;1.63;1.02;;;8.30;99.90;;;;;;6219017;22;20060;-88
2023/02/28 12:16:58;;;;;;;1.63;0.98;;;8.20;99.90;;;;;;6244758;22;19997;-89
2023/02/28 12:19:51;;;;;;;2.13;1.27;;;8.30;99.90;;;;;;6205858;23;19988;-93
2023/02/28 12:22:36;;;;;;;1.63;1.30;;;8.30;99.90;;;;;;6243678;22;20064;-90
2023/02/28 12:25:20;;;;;;;2.13;1.30;;;8.40;99.90;;;;;;6212334;23;20011;-94
2023/02/28 12:27:48;;;;;;;4.63;1.42;;;8.60;99.90;;;;;;6192309;23;20325;-95
2023/02/28 12:30:22;;;;;;;1.25;1.10;;;8.70;99.90;;;;;;6194956;23;20000;-94
2023/02/28 12:32:56;;;;;;;1.42;1.33;;;8.80;99.90;;;;;;6204310;23;20012;-94
2023/02/28 12:35:33;;;;;;;1.23;0.93;;;8.70;99.90;;;;;;6212448;23;20008;-94
2023/02/28 12:38:14;;;;;;;2.70;1.30;;;8.60;99.90;;;;;;6217925;23;20008;-94
2023/02/28 12:40:57;;;;;;;1.48;1.30;;;8.40;99.90;;;;;;6191606;23;20092;-93
2023/02/28 12:43:32;;;;;;;1.33;1.23;;;8.40;99.90;;;;;;6191071;23;20020;-94
2023/02/28 12:46:08;;;;;;;1.15;1.02;;;8.60;99.90;;;;;;6190961;23;20008;-94
2023/02/28 12:48:42;;;;;;;4.72;1.60;;;8.70;99.90;;;;;;6219000;23;20039;-95
2023/02/28 12:51:09;;;;;;;5.15;1.58;;;8.80;99.90;;;;;;6196549;23;20428;-95
2023/02/28 12:53:56;;;;;;;1.55;0.90;;;9.00;99.90;;;;;;6222098;23;20005;-95
2023/02/28 12:56:38;;;;;;;2.58;1.30;;;9.10;99.90;;;;;;6197702;23;20028;-95
2023/02/28 12:59:14;;;;;;;1.55;1.13;;;9.20;99.90;;;;;;6192071;23;20056;-92
2023/02/28 13:02:16;;;;;;;3.40;1.10;;;9.30;99.90;;;;;;6202077;23;20094;-94
2023/02/28 13:04:41;;;;;;;1.42;1.02;;;9.30;99.90;;;;;;6248528;23;20007;-94
2023/02/28 13:07:33;;;;;;;2.63;1.00;;;9.30;99.90;;;;;;6233238;23;20007;-96
2023/02/28 13:10:02;;;;;;;4.20;1.63;;;9.10;99.90;;;;;;6231265;23;20004;-95
2023/02/28 13:12:28;;;;;;;4.65;1.20;;;9.00;99.90;;;;;;6224038;23;20004;-95
2023/02/28 13:15:12;;;;;;;3.15;1.35;;;8.80;99.90;;;;;;6223355;23;20070;-95
2023/02/28 13:17:41;;;;;;;2.97;1.33;;;8.60;99.90;;;;;;6226352;23;20034;-95
2023/02/28 13:20:20;;;;;;;2.85;1.40;;;8.50;99.90;;;;;;6251398;23;20004;-95
2023/02/28 13:22:48;;;;;;;3.75;1.52;;;8.40;99.90;;;;;;6213932;23;20023;-96
2023/02/28 13:25:42;;;;;;;1.52;1.38;;;8.30;99.90;;;;;;6220632;23;20008;-96
2023/02/28 13:28:14;;;;;;;3.05;1.60;;;8.30;99.90;;;;;;6220098;23;20082;-95
2023/02/28 13:30:52;;;;;;;2.47;1.48;;;8.20;99.90;;;;;;6248893;23;20007;-90
2023/02/28 13:33:31;;;;;;;2.38;1.73;;;8.10;99.90;;;;;;6220923;23;20461;-95
2023/02/28 13:36:19;;;;;;;3.17;1.52;;;8.10;99.90;;;;;;6250178;23;19996;-92
2023/02/28 13:39:09;;;;;;;2.17;1.60;;;8.10;99.90;;;;;;6220760;23;20543;-95
2023/02/28 13:41:34;;;;;;;2.70;2.17;;;8.00;99.90;;;;;;6218889;23;20063;-93
2023/02/28 13:44:06;;;;;;;1.73;1.60;;;8.00;99.90;;;;;;6246045;23;20004;-92
2023/02/28 13:46:35;;;;;;;3.92;2.10;;;8.10;99.90;;;;;;6219886;23;20018;-94
2023/02/28 13:49:20;;;;;;;2.95;1.13;;;8.00;99.90;;;;;;6219557;23;20121;-92
2023/02/28 13:51:48;;;;;;;0.98;0.90;;;7.90;99.90;;;;;;6219926;23;20056;-92
2023/02/28 13:54:26;;;;;;;1.73;1.20;;;7.80;99.90;;;;;;6221939;23;20449;-92
2023/02/28 13:56:58;;;;;;;1.63;0.73;;;7.70;99.90;;;;;;6219943;23;20015;-93
2023/02/28 13:59:37;;;;;;;0.85;0.75;;;7.60;99.90;;;;;;6220385;23;20139;-93
2023/02/28 14:02:23;;;;;;;1.10;1.00;;;7.50;99.90;;;;;;6246940;23;20087;-94
2023/02/28 14:05:12;;;;;;;1.40;1.02;;;7.40;99.90;;;;;;6246941;23;20028;-92
2023/02/28 14:07:53;;;;;;;1.00;0.90;;;7.40;99.90;;;;;;6220552;23;20047;-93
2023/02/28 14:10:26;;;;;;;1.30;1.20;;;7.40;99.90;;;;;;6220181;23;19996;-91
2023/02/28 14:13:23;;;;;;;1.10;1.00;;;7.40;99.90;;;;;;6247409;23;20005;-93
2023/02/28 14:16:00;;;;;;;3.88;1.00;;;7.40;99.90;;;;;;6220344;23;20035;-92
2023/02/28 14:18:35;;;;;;;8.88;3.38;;;7.30;99.90;;;;;;6220123;23;20008;-92
2023/02/28 14:21:13;;;;;;;2.17;1.30;;;7.30;99.90;;;;;;6246881;23;20004;-91
2023/02/28 14:24:00;;;;;;;2.35;1.10;;;7.40;99.90;;;;;;6247807;23;20445;-93
2023/02/28 14:27:06;;;;;;;1.98;0.90;;;7.40;99.90;;;;;;6221201;23;20034;-91
2023/02/28 14:29:50;;;;;;;1.50;1.10;;;7.40;99.90;;;;;;6221542;23;20014;-95
2023/02/28 14:32:39;;;;;;;4.30;1.50;;;7.40;99.90;;;;;;6249981;23;19996;-93
2023/02/28 14:35:35;;;;;;;3.67;1.02;;;7.30;99.90;;;;;;6221696;23;20008;-94
2023/02/28 14:38:06;;;;;;;3.63;1.27;;;7.30;99.90;;;;;;6221063;23;20019;-93
2023/02/28 14:40:38;;;;;;;1.25;0.90;;;7.20;99.90;;;;;;6220720;23;20121;-94
2023/02/28 14:43:23;;;;;;;2.60;0.80;;;7.20;99.90;;;;;;6220723;23;20031;-93
2023/02/28 14:45:59;;;;;;;2.42;0.93;;;7.10;99.90;;;;;;6246816;23;20081;-92
2023/02/28 14:48:26;;;;;;;2.33;1.33;;;7.10;99.90;;;;;;6246780;23;20024;-94
2023/02/28 14:51:00;;;;;;;1.40;0.70;;;7.00;99.90;;;;;;6247881;23;20019;-93
2023/02/28 14:53:29;;;;;;;1.02;0.70;;;7.00;99.90;;;;;;6227711;23;20012;-90
2023/02/28 14:55:55;;;;;;;4.55;0.80;;;7.00;99.90;;;;;;6239150;23;20012;-93
2023/02/28 14:58:27;;;;;;;2.15;0.90;;;7.00;99.90;;;;;;6227752;23;20068;-91
2023/02/28 15:00:58;;;;;;;1.63;0.70;;;7.10;99.90;;;;;;6221824;23;20008;-91
2023/02/28 15:03:30;;;;;;;5.43;0.95;;;7.10;99.90;;;;;;6220629;23;20012;-90
2023/02/28 15:06:01;;;;;;;1.75;0.70;;;7.10;99.90;;;;;;6222611;23;20241;-90
2023/02/28 15:08:29;;;;;;;3.42;0.70;;;7.00;99.90;;;;;;6257412;23;20012;-94
2023/02/28 15:11:02;;;;;;;1.38;0.70;;;7.00;99.90;;;;;;6231515;23;20026;-96
2023/02/28 15:13:37;;;;;;;3.78;1.05;;;7.00;99.90;;;;;;6240934;23;20008;-95
2023/02/28 15:16:31;;;;;;;4.25;1.00;;;7.00;99.90;;;;;;6243631;23;20015;-93
2023/02/28 15:19:25;;;;;;;1.05;0.70;;;7.00;99.90;;;;;;6239979;23;20000;-93
2023/02/28 15:22:06;;;;;;;5.05;1.42;;;7.00;99.90;;;;;;6234315;23;20046;-92
2023/02/28 15:24:36;;;;;;;2.03;1.23;;;7.00;99.90;;;;;;6244030;23;20004;-93
2023/02/28 15:27:03;;;;;;;;;;;7.00;99.90;;;;;;6238906;23;20287;-93
2023/02/28 15:29:32;;;;;;;5.50;0.95;;;7.00;99.90;;;;;;6242023;23;19908;-92
2023/02/28 15:32:01;;;;;;;4.05;0.93;;;7.10;99.90;;;;;;6246428;22;19989;-93
2023/02/28 15:34:40;;;;;;;1.80;0.93;;;7.10;99.90;;;;;;6247128;23;20016;-92
2023/02/28 15:37:56;;;;;;;0.88;0.63;;;7.10;99.90;;;;;;6247270;22;20018;-93
2023/02/28 15:40:29;;;;;;;5.18;1.00;;;7.10;99.90;;;;;;6097384;23;20011;-96
2023/02/28 15:43:05;;;;;;;3.30;1.00;;;7.10;99.90;;;;;;6093436;23;20015;-94
2023/02/28 15:45:40;;;;;;;2.85;1.10;;;7.10;99.90;;;;;;6121586;23;20002;-93
2023/02/28 15:48:17;;;;;;;1.95;1.23;;;7.00;99.90;;;;;;6098791;23;20062;-92
2023/02/28 15:50:43;;;;;;;2.35;0.80;;;7.00;99.90;;;;;;6098418;23;20062;-93
2023/02/28 15:53:30;;;;;;;2.10;0.95;;;7.00;99.90;;;;;;6121951;23;19994;-95
2023/02/28 15:56:19;;;;;;;6.25;0.90;;;7.00;99.90;;;;;;6122669;23;20055;-94
2023/02/28 15:58:45;;;;;;;4.53;1.10;;;7.00;99.90;;;;;;6122053;23;20013;-90
2023/02/28 16:01:40;;;;;;;4.18;1.10;;;7.00;99.90;;;;;;6121173;23;20006;-92
2023/02/28 16:04:17;;;;;;;1.40;0.90;;;7.00;99.90;;;;;;6070383;23;20010;-95
2023/02/28 16:06:44;;;;;;;2.03;0.95;;;6.90;99.90;;;;;;6098869;23;20086;-94
2023/02/28 16:09:15;;;;;;;0.90;0.70;;;6.90;99.90;;;;;;6074198;23;20002;-93
2023/02/28 16:11:53;;;;;;;2.47;1.33;;;6.90;99.90;;;;;;6200539;23;20461;-93
2023/02/28 16:14:27;;;;;;;3.13;1.10;;;6.80;99.90;;;;;;6231500;23;20000;-93
2023/02/28 16:17:02;;;;;;;1.23;0.75;;;6.80;99.90;;;;;;6231257;23;20012;-89
2023/02/28 16:19:28;;;;;;;1.65;0.70;;;6.80;99.90;;;;;;6244811;22;19996;-92
2023/02/28 16:21:54;;;;;;;3.50;1.33;;;6.80;99.90;;;;;;6248041;23;20004;-95
2023/02/28 16:24:20;;;;;;;0.80;0.80;;;6.80;99.90;;;;;;6248128;22;20025;-91
2023/02/28 16:26:48;;;;;;;1.65;1.00;;;6.80;99.90;;;;;;6245386;23;20012;-95
2023/02/28 16:29:23;;;;;;;2.53;0.80;;;6.70;99.90;;;;;;6268838;23;20030;-95
2023/02/28 16:31:48;;;;;;;2.33;1.02;;;6.70;99.90;;;;;;6242239;23;20038;-93
2023/02/28 16:34:14;;;;;;;2.22;1.25;;;6.60;99.90;;;;;;6245518;23;20008;-94
2023/02/28 16:36:40;;;;;;;6.70;1.40;;;6.70;99.90;;;;;;6238363;23;20012;-95
2023/02/28 16:39:06;;;;;;;2.38;1.23;;;6.70;99.90;;;;;;6242758;23;19984;-95
2023/02/28 16:41:34;;;;;;;3.72;1.55;;;6.60;99.90;;;;;;6270378;23;20014;-92
2023/02/28 16:44:00;;;;;;;3.25;1.45;;;6.50;99.90;;;;;;6244876;23;20007;-95
2023/02/28 16:46:44;;;;;;;2.92;1.60;;;6.60;99.90;;;;;;6245691;23;20015;-93
2023/02/28 16:49:12;;;;;;;2.28;1.20;;;6.60;99.90;;;;;;6246663;23;20019;-93
2023/02/28 16:51:38;;;;;;;4.82;1.35;;;6.60;99.90;;;;;;6272886;23;20052;-92
2023/02/28 16:54:04;;;;;;;4.72;1.48;;;6.60;99.90;;;;;;6246394;23;20050;-94
2023/02/28 16:56:30;;;;;;;1.90;1.30;;;6.50;99.90;;;;;;6246352;23;20031;-94
2023/02/28 16:59:00;;;;;;;4.43;1.27;;;6.50;99.90;;;;;;6272986;23;20004;-93
2023/02/28 17:01:27;;;;;;;3.22;1.30;;;6.50;99.90;;;;;;6243628;23;20042;-94
2023/02/28 17:03:53;;;;;;;1.73;1.15;;;6.50;99.90;;;;;;6245644;23;20035;-95
2023/02/28 17:06:30;;;;;;;1.95;1.40;;;6.50;99.90;;;;;;6239954;23;20000;-94
2023/02/28 17:08:59;;;;;;;1.70;1.23;;;6.40;99.90;;;;;;6242482;23;20011;-93
2023/02/28 17:11:25;;;;;;;1.88;1.30;;;6.30;99.90;;;;;;6209859;23;20046;-93
2023/02/28 17:13:53;;;;;;;1.65;1.20;;;6.30;99.90;;;;;;6236583;23;20012;-95
2023/02/28 17:16:32;;;;;;;1.95;1.20;;;6.30;99.90;;;;;;6238390;23;20004;-94
2023/02/28 17:19:03;;;;;;;3.47;1.23;;;6.30;99.90;;;;;;6237122;23;20506;-95
2023/02/28 17:21:30;;;;;;;14.18;6.18;;;6.20;99.90;;;;;;6239467;23;20011;-94
2023/02/28 17:23:56;;;;;;;3.72;1.85;;;6.20;99.90;;;;;;6239330;23;20030;-94
2023/02/28 17:26:24;;;;;;;1.70;1.10;;;6.20;99.90;;;;;;6242697;23;20438;-94
2023/02/28 17:28:55;;;;;;;2.10;1.88;;;6.20;99.90;;;;;;6244879;23;20026;-96
2023/02/28 17:31:21;;;;;;;2.97;0.98;;;6.20;99.90;;;;;;6241092;23;20011;-94
2023/02/28 17:33:49;;;;;;;3.45;0.90;;;6.10;99.90;;;;;;6266356;23;20000;-92
2023/02/28 17:36:22;;;;;;;1.13;1.02;;;6.10;99.90;;;;;;6239906;23;20027;-94
2023/02/28 17:38:48;;;;;;;4.30;1.02;;;6.10;99.90;;;;;;6240448;23;19996;-94
2023/02/28 17:41:14;;;;;;;2.90;1.20;;;6.00;99.90;;;;;;6236330;23;20027;-95
2023/02/28 17:43:40;;;;;;;3.58;1.65;;;6.00;99.90;;;;;;6238403;23;20004;-94
2023/02/28 17:46:17;;;;;;;1.35;1.00;;;6.00;99.90;;;;;;6234666;23;20008;-94
2023/02/28 17:48:44;;;;;;;1.00;0.70;;;5.90;99.90;;;;;;6238113;23;20012;-94
2023/02/28 17:51:19;;;;;;;2.50;0.75;;;5.90;99.90;;;;;;6233977;23;20000;-96
2023/02/28 17:53:47;;;;;;;0.70;0.70;;;5.90;99.90;;;;;;6236155;23;20047;-94
2023/02/28 17:56:23;;;;;;;0.93;0.60;;;5.90;99.90;;;;;;6241095;23;20027;-95
2023/02/28 17:58:53;;;;;;;0.70;0.70;;;5.90;99.90;;;;;;6241303;23;20427;-94
2023/02/28 18:01:20;;;;;;;1.98;0.60;;;5.80;99.90;;;;;;6243278;23;20012;-95
2023/02/28 18:03:47;;;;;;;1.27;0.90;;;5.90;99.90;;;;;;6244804;23;20004;-94
2023/02/28 18:06:27;;;;;;;1.75;0.98;;;5.90;99.90;;;;;;6272201;23;20020;-93
2023/02/28 18:08:53;;;;;;;1.42;0.90;;;5.90;99.90;;;;;;6245831;23;20347;-95
2023/02/28 18:11:23;;;;;;;2.50;1.13;;;5.90;99.90;;;;;;6238799;23;20327;-94
2023/02/28 18:13:51;;;;;;;1.47;0.90;;;5.90;99.90;;;;;;6234426;23;20014;-95
2023/02/28 18:16:18;;;;;;;4.38;1.50;;;5.90;99.90;;;;;;6237813;23;20008;-88
2023/02/28 18:18:44;;;;;;;1.63;1.25;;;5.90;99.90;;;;;;6246489;23;20107;-93
2023/02/28 18:21:12;;;;;;;1.98;1.00;;;6.00;99.90;;;;;;6220173;23;20440;-91
2023/02/28 18:23:44;;;;;;;1.45;0.98;;;6.00;99.90;;;;;;6220701;23;20010;-90
2023/02/28 18:26:10;;;;;;;0.85;0.70;;;6.00;99.90;;;;;;6222567;23;20039;-91
2023/02/28 18:28:36;;;;;;;0.70;0.70;;;6.00;99.90;;;;;;6231611;23;20008;-91
2023/02/28 18:31:09;;;;;;;1.05;0.95;;;5.90;99.90;;;;;;6231552;23;20042;-91
2023/02/28 18:33:35;;;;;;;4.30;1.40;;;5.90;99.90;;;;;;6225806;23;20090;-91
2023/02/28 18:36:05;;;;;;;4.30;2.20;;;5.90;99.90;;;;;;6221997;23;20004;-92
2023/02/28 18:38:31;;;;;;;4.43;2.42;;;5.80;99.90;;;;;;6221461;23;20008;-91
2023/02/28 18:41:03;;;;;;;2.60;1.85;;;5.70;99.90;;;;;;6220193;23;20013;-92
2023/02/28 18:43:30;;;;;;;2.70;1.70;;;5.70;99.90;;;;;;6220339;23;19996;-91
2023/02/28 18:45:56;;;;;;;4.03;1.75;;;5.70;99.90;;;;;;6220948;23;20095;-91
2023/02/28 18:48:22;;;;;;;2.78;1.75;;;5.60;99.90;;;;;;6220425;23;20035;-91
2023/02/28 18:50:51;;;;;;;2.20;1.40;;;5.60;99.90;;;;;;6220259;23;20090;-92
2023/02/28 18:53:18;;;;;;;2.10;1.48;;;5.60;99.90;;;;;;6220301;23;20424;-91
2023/02/28 18:55:46;;;;;;;3.63;1.90;;;5.60;99.90;;;;;;6220788;23;20435;-91
2023/02/28 18:58:12;;;;;;;2.65;2.05;;;5.60;99.90;;;;;;6221095;23;20004;-91
2023/02/28 19:00:37;;;;;;;4.68;2.40;;;5.60;99.90;;;;;;6220616;23;20058;-91
2023/02/28 19:03:15;;;;;;;6.90;2.60;;;5.60;99.90;;;;;;6220383;23;20030;-91
2023/02/28 19:05:41;;;;;;;3.47;2.95;;;5.60;99.90;;;;;;6219840;23;20518;-92
2023/02/28 19:08:09;;;;;;;5.20;2.63;;;5.60;99.90;;;;;;6220761;23;20020;-91
2023/02/28 19:10:59;;;;;;;6.32;3.40;;;5.50;99.90;;;;;;6220578;23;20047;-92
2023/02/28 19:13:27;;;;;;;8.00;3.73;;;5.60;99.90;;;;;;6198027;23;20007;-92
2023/02/28 19:16:04;;;;;;;6.50;3.63;;;5.50;99.90;;;;;;6220380;23;20004;-92
2023/02/28 19:18:30;;;;;;;5.68;3.55;;;5.50;99.90;;;;;;6220714;23;20007;-92
2023/02/28 19:20:55;;;;;;;6.65;3.80;;;5.60;99.90;;;;;;6220138;23;20012;-93
2023/02/28 19:23:21;;;;;;;4.43;3.03;;;5.60;99.90;;;;;;6220494;23;20049;-92
2023/02/28 19:25:47;;;;;;;5.57;3.00;;;5.70;99.90;;;;;;6220201;23;20008;-92
2023/02/28 19:28:13;;;;;;;5.10;3.25;;;5.70;99.90;;;;;;6220401;23;20012;-92
2023/02/28 19:30:39;;;;;;;4.85;3.03;;;5.70;99.90;;;;;;6220363;23;19996;-92
2023/02/28 19:33:07;;;;;;;3.00;2.25;;;5.70;99.90;;;;;;6220596;23;20339;-91
2023/02/28 19:35:33;;;;;;;4.97;3.03;;;5.70;99.90;;;;;;6219929;23;20092;-93
2023/02/28 19:37:59;;;;;;;3.75;2.70;;;5.70;99.90;;;;;;6220047;23;20036;-92
2023/02/28 19:40:25;;;;;;;7.88;2.92;;;5.70;99.90;;;;;;6221554;23;20012;-93
2023/02/28 19:42:50;;;;;;;5.38;3.53;;;5.70;99.90;;;;;;6221944;23;20022;-92
2023/02/28 19:45:16;;;;;;;5.90;4.03;;;5.70;99.90;;;;;;6221749;23;20054;-92
2023/02/28 19:47:43;;;;;;;7.15;3.90;;;5.70;99.90;;;;;;6221760;23;20443;-91
2023/02/28 19:50:12;;;;;;;7.82;3.63;;;5.70;99.90;;;;;;6221897;23;20022;-92
2023/02/28 19:52:38;;;;;;;6.38;4.00;;;5.70;99.90;;;;;;6222142;23;20005;-92
2023/02/28 19:55:06;;;;;;;5.68;3.38;;;5.70;99.90;;;;;;6222066;23;20007;-92
2023/02/28 19:57:32;;;;;;;7.15;3.28;;;5.60;99.90;;;;;;6223615;23;20008;-92
2023/02/28 19:59:57;;;;;;;4.70;3.25;;;5.60;99.90;;;;;;6223031;23;20091;-91
2023/02/28 20:02:25;;;;;;;4.25;2.92;;;5.60;99.90;;;;;;6221209;23;20019;-92
2023/02/28 20:04:56;;;;;;;4.53;3.08;;;5.60;99.90;;;;;;6221850;23;20087;-91
2023/02/28 20:07:24;;;;;;;3.50;2.67;;;5.60;99.90;;;;;;6221689;23;20016;-91
2023/02/28 20:09:49;;;;;;;3.10;2.40;;;5.50;99.90;;;;;;6222167;23;20015;-92
2023/02/28 20:12:16;;;;;;;3.97;2.30;;;5.50;99.90;;;;;;6223795;23;20008;-92
2023/02/28 20:14:42;;;;;;;4.20;2.42;;;5.50;99.90;;;;;;6235297;23;20064;-92
2023/02/28 20:17:08;;;;;;;4.32;2.70;;;5.50;99.90;;;;;;6222957;23;20008;-93
2023/02/28 20:19:34;;;;;;;4.60;3.05;;;5.50;99.90;;;;;;6221932;23;20073;-92
2023/02/28 20:22:01;;;;;;;5.95;3.10;;;5.40;99.90;;;;;;6221597;23;20446;-92
2023/02/28 20:24:29;;;;;;;7.38;3.85;;;5.40;99.90;;;;;;6221564;23;20004;-92
2023/02/28 20:26:56;;;;;;;8.15;4.25;;;5.40;99.90;;;;;;6225003;23;20063;-91
2023/02/28 20:29:22;;;;;;;7.43;4.05;;;5.40;99.90;;;;;;6222241;23;20012;-92
2023/02/28 20:31:48;;;;;;;7.65;4.05;;;5.30;99.90;;;;;;6222977;23;20008;-92
2023/02/28 20:34:18;;;;;;;9.57;4.75;;;5.30;99.90;;;;;;6223531;23;20015;-91
2023/02/28 20:36:44;;;;;;;8.70;4.57;;;5.30;99.90;;;;;;6223259;23;20004;-92
2023/02/28 20:39:10;;;;;;;6.53;4.60;;;5.30;99.90;;;;;;6222764;23;20011;-92
2023/02/28 20:41:36;;;;;;;6.03;4.32;;;5.30;99.90;;;;;;6222592;23;20010;-91
2023/02/28 20:44:02;;;;;;;9.25;4.95;;;5.30;99.90;;;;;;6222433;23;20008;-91
2023/02/28 20:46:29;;;;;;;6.22;3.70;;;5.30;99.90;;;;;;6221465;23;20008;-91
2023/02/28 20:48:56;;;;;;;5.57;3.58;;;5.30;99.90;;;;;;6221898;23;20004;-92
2023/02/28 20:51:22;;;;;;;7.22;3.83;;;5.30;99.90;;;;;;6221776;23;20011;-91
2023/02/28 20:53:48;;;;;;;7.18;3.65;;;5.30;99.90;;;;;;6221520;23;20008;-90
2023/02/28 20:56:17;;;;;;;6.63;3.63;;;5.30;99.90;;;;;;6221663;23;20046;-92
2023/02/28 20:58:44;;;;;;;11.57;4.78;;;5.20;99.90;;;;;;6221134;23;20008;-92
2023/02/28 21:01:24;;;;;;;7.55;3.72;;;5.20;99.90;;;;;;6221272;23;20096;-90